sensor_id;sensor_type;location;lat;lon;timestamp;pressure;altitude;pressure_sealevel;temperature;humidity
34931;BME280;21134;49.646;8.560;2023-09-08T00:01:56;100593.38;;;17.59;88.22
34931;BME280;21134;49.646;8.560;2023-09-08T00:04:22;100593.63;;;17.50;88.09
34931;BME280;21134;49.646;8.560;2023-09-08T00:06:50;100587.56;;;17.51;88.48
34931;BME280;21134;49.646;8.560;2023-09-08T00:09:17;100591.97;;;17.48;88.79
34931;BME280;21134;49.646;8.560;2023-09-08T00:11:43;100590.16;;;17.51;88.33
34931;BME280;21134;49.646;8.560;2023-09-08T00:14:10;100585.06;;;17.48;88.53
34931;BME280;21134;49.646;8.560;2023-09-08T00:16:36;100591.09;;;17.49;88.00
34931;BME280;21134;49.646;8.560;2023-09-08T00:19:04;100583.38;;;17.47;88.17
34931;BME280;21134;49.646;8.560;2023-09-08T00:21:30;100596.47;;;17.41;88.22
34931;BME280;21134;49.646;8.560;2023-09-08T00:23:58;100577.66;;;17.36;88.39
34931;BME280;21134;49.646;8.560;2023-09-08T00:26:26;100581.88;;;17.38;88.60
34931;BME280;21134;49.646;8.560;2023-09-08T00:28:52;100586.34;;;17.33;88.87
34931;BME280;21134;49.646;8.560;2023-09-08T00:31:19;100578.63;;;17.32;89.00
34931;BME280;21134;49.646;8.560;2023-09-08T00:33:46;100580.34;;;17.33;88.52
34931;BME280;21134;49.646;8.560;2023-09-08T00:36:12;100576.88;;;17.32;88.95
34931;BME280;21134;49.646;8.560;2023-09-08T00:38:40;100576.16;;;17.27;89.07
34931;BME280;21134;49.646;8.560;2023-09-08T00:41:08;100586.59;;;17.24;88.99
34931;BME280;21134;49.646;8.560;2023-09-08T00:43:34;100583.28;;;17.19;89.14
34931;BME280;21134;49.646;8.560;2023-09-08T00:46:01;100585.91;;;17.17;89.84
34931;BME280;21134;49.646;8.560;2023-09-08T00:48:28;100576.50;;;17.15;90.18
34931;BME280;21134;49.646;8.560;2023-09-08T00:50:55;100586.88;;;17.13;89.90
34931;BME280;21134;49.646;8.560;2023-09-08T00:53:22;100575.00;;;17.06;90.57
34931;BME280;21134;49.646;8.560;2023-09-08T00:55:50;100581.81;;;17.10;90.07
34931;BME280;21134;49.646;8.560;2023-09-08T00:58:19;100574.97;;;17.08;90.17
34931;BME280;21134;49.646;8.560;2023-09-08T01:00:45;100581.13;;;17.02;90.54
34931;BME280;21134;49.646;8.560;2023-09-08T01:03:12;100580.28;;;17.02;91.19
34931;BME280;21134;49.646;8.560;2023-09-08T01:05:39;100572.00;;;16.89;91.50
34931;BME280;21134;49.646;8.560;2023-09-08T01:08:06;100581.53;;;16.87;91.50
34931;BME280;21134;49.646;8.560;2023-09-08T01:10:33;100582.44;;;16.84;91.76
34931;BME280;21134;49.646;8.560;2023-09-08T01:13:00;100581.81;;;16.74;91.79
34931;BME280;21134;49.646;8.560;2023-09-08T01:15:27;100587.91;;;16.72;91.79
34931;BME280;21134;49.646;8.560;2023-09-08T01:17:54;100587.19;;;16.65;91.43
34931;BME280;21134;49.646;8.560;2023-09-08T01:20:24;100577.91;;;16.58;91.31
34931;BME280;21134;49.646;8.560;2023-09-08T01:23:01;100580.69;;;16.50;90.62
34931;BME280;21134;49.646;8.560;2023-09-08T01:25:31;100580.81;;;16.44;90.74
34931;BME280;21134;49.646;8.560;2023-09-08T01:28:00;100574.06;;;16.39;90.76
34931;BME280;21134;49.646;8.560;2023-09-08T01:30:29;100578.50;;;16.34;91.16
34931;BME280;21134;49.646;8.560;2023-09-08T01:32:58;100586.41;;;16.27;91.55
34931;BME280;21134;49.646;8.560;2023-09-08T01:35:25;100583.06;;;16.22;91.01
34931;BME280;21134;49.646;8.560;2023-09-08T01:37:52;100584.88;;;16.19;91.12
34931;BME280;21134;49.646;8.560;2023-09-08T01:40:18;100585.78;;;16.16;91.55
34931;BME280;21134;49.646;8.560;2023-09-08T01:42:47;100591.84;;;16.14;91.86
34931;BME280;21134;49.646;8.560;2023-09-08T01:45:14;100586.75;;;16.11;91.54
34931;BME280;21134;49.646;8.560;2023-09-08T01:47:41;100579.94;;;16.08;91.66
34931;BME280;21134;49.646;8.560;2023-09-08T01:50:08;100577.28;;;16.11;90.91
34931;BME280;21134;49.646;8.560;2023-09-08T01:52:35;100570.66;;;15.99;91.55
34931;BME280;21134;49.646;8.560;2023-09-08T01:55:01;100571.59;;;15.97;91.57
34931;BME280;21134;49.646;8.560;2023-09-08T01:57:28;100569.19;;;15.88;92.05
34931;BME280;21134;49.646;8.560;2023-09-08T01:59:56;100568.41;;;15.84;91.70
34931;BME280;21134;49.646;8.560;2023-09-08T02:02:22;100567.59;;;15.82;92.11
34931;BME280;21134;49.646;8.560;2023-09-08T02:04:49;100578.81;;;15.81;92.31
34931;BME280;21134;49.646;8.560;2023-09-08T02:07:15;100577.06;;;15.83;91.74
34931;BME280;21134;49.646;8.560;2023-09-08T02:09:41;100577.13;;;15.80;91.82
34931;BME280;21134;49.646;8.560;2023-09-08T02:12:08;100576.50;;;15.66;92.89
34931;BME280;21134;49.646;8.560;2023-09-08T02:14:34;100578.25;;;15.67;92.29
34931;BME280;21134;49.646;8.560;2023-09-08T02:17:02;100572.25;;;15.63;92.99
34931;BME280;21134;49.646;8.560;2023-09-08T02:19:29;100581.78;;;15.59;92.96
34931;BME280;21134;49.646;8.560;2023-09-08T02:21:56;100582.69;;;15.57;92.92
34931;BME280;21134;49.646;8.560;2023-09-08T02:24:22;100581.88;;;15.55;92.72
34931;BME280;21134;49.646;8.560;2023-09-08T02:26:49;100584.41;;;15.58;92.51
34931;BME280;21134;49.646;8.560;2023-09-08T02:29:15;100576.00;;;15.48;92.78
34931;BME280;21134;49.646;8.560;2023-09-08T02:31:42;100578.72;;;15.41;93.16
34931;BME280;21134;49.646;8.560;2023-09-08T02:34:10;100586.50;;;15.39;93.79
34931;BME280;21134;49.646;8.560;2023-09-08T02:36:37;100591.63;;;15.41;93.78
34931;BME280;21134;49.646;8.560;2023-09-08T02:39:04;100580.50;;;15.39;94.62
34931;BME280;21134;49.646;8.560;2023-09-08T02:41:32;100585.66;;;15.39;94.03
34931;BME280;21134;49.646;8.560;2023-09-08T02:43:58;100585.72;;;15.34;94.20
34931;BME280;21134;49.646;8.560;2023-09-08T02:46:25;100581.41;;;15.34;94.72
34931;BME280;21134;49.646;8.560;2023-09-08T02:48:51;100591.78;;;15.31;94.22
34931;BME280;21134;49.646;8.560;2023-09-08T02:51:19;100586.63;;;15.31;94.42
34931;BME280;21134;49.646;8.560;2023-09-08T02:53:46;100595.25;;;15.32;94.04
34931;BME280;21134;49.646;8.560;2023-09-08T02:56:12;100588.41;;;15.28;94.86
34931;BME280;21134;49.646;8.560;2023-09-08T02:58:38;100585.94;;;15.22;95.19
34931;BME280;21134;49.646;8.560;2023-09-08T03:01:12;100585.28;;;15.12;95.96
34931;BME280;21134;49.646;8.560;2023-09-08T03:03:40;100590.53;;;15.06;96.41
34931;BME280;21134;49.646;8.560;2023-09-08T03:06:06;100586.09;;;15.14;96.48
34931;BME280;21134;49.646;8.560;2023-09-08T03:08:34;100590.31;;;15.18;96.70
34931;BME280;21134;49.646;8.560;2023-09-08T03:11:02;100582.53;;;15.21;96.94
34931;BME280;21134;49.646;8.560;2023-09-08T03:13:29;100587.69;;;15.21;96.94
34931;BME280;21134;49.646;8.560;2023-09-08T03:15:55;100586.84;;;15.21;97.11
34931;BME280;21134;49.646;8.560;2023-09-08T03:18:22;100586.84;;;15.21;96.63
34931;BME280;21134;49.646;8.560;2023-09-08T03:20:49;100589.41;;;15.22;96.94
34931;BME280;21134;49.646;8.560;2023-09-08T03:23:15;100587.56;;;15.27;95.86
34931;BME280;21134;49.646;8.560;2023-09-08T03:25:43;100581.63;;;15.25;95.95
34931;BME280;21134;49.646;8.560;2023-09-08T03:28:11;100582.47;;;15.26;95.57
34931;BME280;21134;49.646;8.560;2023-09-08T03:30:38;100586.00;;;15.19;96.15
34931;BME280;21134;49.646;8.560;2023-09-08T03:33:04;100586.00;;;15.19;96.55
34931;BME280;21134;49.646;8.560;2023-09-08T03:35:30;100590.38;;;15.15;96.33
34931;BME280;21134;49.646;8.560;2023-09-08T03:37:57;100595.63;;;15.10;97.19
34931;BME280;21134;49.646;8.560;2023-09-08T03:40:23;100592.22;;;15.08;97.57
34931;BME280;21134;49.646;8.560;2023-09-08T03:42:51;100594.78;;;15.08;97.55
34931;BME280;21134;49.646;8.560;2023-09-08T03:45:18;100594.91;;;15.02;97.39
34931;BME280;21134;49.646;8.560;2023-09-08T03:47:44;100595.81;;;15.00;97.84
34931;BME280;21134;49.646;8.560;2023-09-08T03:50:11;100598.38;;;15.01;97.89
34931;BME280;21134;49.646;8.560;2023-09-08T03:52:37;100595.69;;;15.07;97.69
34931;BME280;21134;49.646;8.560;2023-09-08T03:55:04;100593.81;;;15.16;96.25
34931;BME280;21134;49.646;8.560;2023-09-08T03:57:31;100601.66;;;15.09;96.67
34931;BME280;21134;49.646;8.560;2023-09-08T03:59:58;100595.63;;;15.09;96.87
34931;BME280;21134;49.646;8.560;2023-09-08T04:02:25;100599.16;;;15.05;97.23
34931;BME280;21134;49.646;8.560;2023-09-08T04:04:51;100600.94;;;15.03;96.89
34931;BME280;21134;49.646;8.560;2023-09-08T04:07:18;100596.63;;;15.02;97.01
34931;BME280;21134;49.646;8.560;2023-09-08T04:09:44;100601.00;;;14.98;97.76
34931;BME280;21134;49.646;8.560;2023-09-08T04:12:10;100605.31;;;14.96;98.25
34931;BME280;21134;49.646;8.560;2023-09-08T04:14:37;100597.56;;;14.96;98.85
34931;BME280;21134;49.646;8.560;2023-09-08T04:17:05;100603.56;;;15.00;98.64
34931;BME280;21134;49.646;8.560;2023-09-08T04:19:31;100600.94;;;15.01;97.99
34931;BME280;21134;49.646;8.560;2023-09-08T04:21:57;100602.69;;;14.99;97.72
34931;BME280;21134;49.646;8.560;2023-09-08T04:24:24;100601.00;;;14.98;98.09
34931;BME280;21134;49.646;8.560;2023-09-08T04:26:51;100603.59;;;14.97;97.76
34931;BME280;21134;49.646;8.560;2023-09-08T04:29:17;100595.94;;;14.94;97.84
34931;BME280;21134;49.646;8.560;2023-09-08T04:31:43;100602.72;;;14.96;98.00
34931;BME280;21134;49.646;8.560;2023-09-08T04:34:11;100607.09;;;14.94;98.17
34931;BME280;21134;49.646;8.560;2023-09-08T04:36:39;100612.34;;;14.88;98.08
34931;BME280;21134;49.646;8.560;2023-09-08T04:39:05;100612.28;;;14.89;98.16
34931;BME280;21134;49.646;8.560;2023-09-08T04:41:34;100613.22;;;14.87;97.69
34931;BME280;21134;49.646;8.560;2023-09-08T04:44:00;100621.81;;;14.86;98.12
34931;BME280;21134;49.646;8.560;2023-09-08T04:46:26;100619.28;;;14.84;97.88
34931;BME280;21134;49.646;8.560;2023-09-08T04:48:54;100623.59;;;14.82;97.54
34931;BME280;21134;49.646;8.560;2023-09-08T04:51:21;100621.09;;;14.76;98.05
34931;BME280;21134;49.646;8.560;2023-09-08T04:53:48;100630.47;;;14.80;98.52
34931;BME280;21134;49.646;8.560;2023-09-08T04:56:14;100623.59;;;14.82;98.89
34931;BME280;21134;49.646;8.560;2023-09-08T04:58:41;100626.22;;;14.79;98.80
34931;BME280;21134;49.646;8.560;2023-09-08T05:01:07;100625.41;;;14.77;99.58
34931;BME280;21134;49.646;8.560;2023-09-08T05:03:34;100621.16;;;14.75;99.71
34931;BME280;21134;49.646;8.560;2023-09-08T05:06:00;100629.69;;;14.78;99.83
34931;BME280;21134;49.646;8.560;2023-09-08T05:08:28;100630.44;;;14.83;98.88
34931;BME280;21134;49.646;8.560;2023-09-08T05:10:55;100634.72;;;14.84;98.43
34931;BME280;21134;49.646;8.560;2023-09-08T05:13:21;100630.38;;;14.86;98.30
34931;BME280;21134;49.646;8.560;2023-09-08T05:15:51;100632.91;;;14.91;97.78
34931;BME280;21134;49.646;8.560;2023-09-08T05:18:25;100635.38;;;14.96;97.69
34931;BME280;21134;49.646;8.560;2023-09-08T05:20:51;100635.38;;;14.97;97.56
34931;BME280;21134;49.646;8.560;2023-09-08T05:23:17;100636.19;;;14.99;98.16
34931;BME280;21134;49.646;8.560;2023-09-08T05:25:45;100639.59;;;15.01;97.69
34931;BME280;21134;49.646;8.560;2023-09-08T05:28:12;100638.75;;;14.99;97.95
34931;BME280;21134;49.646;8.560;2023-09-08T05:30:38;100635.28;;;15.02;97.76
34931;BME280;21134;49.646;8.560;2023-09-08T05:33:05;100642.16;;;15.03;97.22
34931;BME280;21134;49.646;8.560;2023-09-08T05:35:32;100643.75;;;15.08;97.26
34931;BME280;21134;49.646;8.560;2023-09-08T05:37:58;100647.13;;;15.12;97.31
34931;BME280;21134;49.646;8.560;2023-09-08T05:40:25;100648.84;;;15.13;97.33
34931;BME280;21134;49.646;8.560;2023-09-08T05:42:53;100641.03;;;15.18;97.09
34931;BME280;21134;49.646;8.560;2023-09-08T05:45:19;100638.41;;;15.21;97.53
34931;BME280;21134;49.646;8.560;2023-09-08T05:47:47;100640.88;;;15.27;97.34
34931;BME280;21134;49.646;8.560;2023-09-08T05:50:14;100652.00;;;15.29;97.59
34931;BME280;21134;49.646;8.560;2023-09-08T05:52:41;100655.34;;;15.34;98.01
34931;BME280;21134;49.646;8.560;2023-09-08T05:55:07;100653.56;;;15.38;97.46
34931;BME280;21134;49.646;8.560;2023-09-08T05:57:34;100652.59;;;15.43;97.81
34931;BME280;21134;49.646;8.560;2023-09-08T06:00:02;100653.28;;;15.53;98.03
34931;BME280;21134;49.646;8.560;2023-09-08T06:02:29;100654.84;;;15.62;98.06
34931;BME280;21134;49.646;8.560;2023-09-08T06:04:55;100650.44;;;15.70;98.39
34931;BME280;21134;49.646;8.560;2023-09-08T06:07:22;100658.03;;;15.76;98.60
34931;BME280;21134;49.646;8.560;2023-09-08T06:09:48;100640.72;;;15.81;98.32
34931;BME280;21134;49.646;8.560;2023-09-08T06:12:15;100645.66;;;15.92;98.74
34931;BME280;21134;49.646;8.560;2023-09-08T06:14:42;100647.94;;;16.07;99.42
34931;BME280;21134;49.646;8.560;2023-09-08T06:17:10;100650.25;;;16.19;99.27
34931;BME280;21134;49.646;8.560;2023-09-08T06:19:37;100656.88;;;16.31;99.18
34931;BME280;21134;49.646;8.560;2023-09-08T06:22:03;100648.88;;;16.42;98.91
34931;BME280;21134;49.646;8.560;2023-09-08T06:24:30;100653.81;;;16.52;99.34
34931;BME280;21134;49.646;8.560;2023-09-08T06:26:56;100647.50;;;16.64;99.28
34931;BME280;21134;49.646;8.560;2023-09-08T06:29:22;100652.31;;;16.81;98.71
34931;BME280;21134;49.646;8.560;2023-09-08T06:31:49;100648.28;;;17.05;95.34
34931;BME280;21134;49.646;8.560;2023-09-08T06:34:17;100650.88;;;17.04;95.36
34931;BME280;21134;49.646;8.560;2023-09-08T06:36:46;100646.16;;;17.21;94.47
34931;BME280;21134;49.646;8.560;2023-09-08T06:39:13;100650.00;;;17.39;92.50
34931;BME280;21134;49.646;8.560;2023-09-08T06:41:39;100648.97;;;17.44;92.14
34931;BME280;21134;49.646;8.560;2023-09-08T06:44:06;100645.34;;;17.52;91.97
34931;BME280;21134;49.646;8.560;2023-09-08T06:46:32;100651.97;;;17.62;90.82
34931;BME280;21134;49.646;8.560;2023-09-08T06:48:58;100650.13;;;17.65;91.54
34931;BME280;21134;49.646;8.560;2023-09-08T06:51:26;100647.38;;;17.72;91.52
34931;BME280;21134;49.646;8.560;2023-09-08T06:53:56;100653.13;;;17.83;91.78
34931;BME280;21134;49.646;8.560;2023-09-08T06:56:22;100651.88;;;17.96;92.01
34931;BME280;21134;49.646;8.560;2023-09-08T06:58:49;100652.56;;;18.03;91.63
34931;BME280;21134;49.646;8.560;2023-09-08T07:01:15;100653.91;;;18.16;91.17
34931;BME280;21134;49.646;8.560;2023-09-08T07:03:42;100641.56;;;18.24;90.29
34931;BME280;21134;49.646;8.560;2023-09-08T07:06:08;100655.03;;;18.35;89.42
34931;BME280;21134;49.646;8.560;2023-09-08T07:08:36;100648.75;;;18.43;89.29
34931;BME280;21134;49.646;8.560;2023-09-08T07:11:02;100652.84;;;18.50;89.42
34931;BME280;21134;49.646;8.560;2023-09-08T07:13:29;100651.81;;;18.55;89.66
34931;BME280;21134;49.646;8.560;2023-09-08T07:15:55;100650.69;;;18.64;88.71
34931;BME280;21134;49.646;8.560;2023-09-08T07:18:22;100647.00;;;18.71;88.49
34931;BME280;21134;49.646;8.560;2023-09-08T07:20:48;100653.69;;;18.80;88.19
34931;BME280;21134;49.646;8.560;2023-09-08T07:23:16;100647.38;;;18.87;86.87
34931;BME280;21134;49.646;8.560;2023-09-08T07:25:46;100649.69;;;18.96;86.83
34931;BME280;21134;49.646;8.560;2023-09-08T07:28:12;100654.50;;;19.07;86.24
34931;BME280;21134;49.646;8.560;2023-09-08T07:30:39;100654.16;;;19.18;85.75
34931;BME280;21134;49.646;8.560;2023-09-08T07:33:05;100647.69;;;19.29;86.44
34931;BME280;21134;49.646;8.560;2023-09-08T07:35:32;100651.59;;;19.41;86.21
34931;BME280;21134;49.646;8.560;2023-09-08T07:37:58;100649.53;;;19.51;86.15
34931;BME280;21134;49.646;8.560;2023-09-08T07:40:25;100650.78;;;19.66;85.62
34931;BME280;21134;49.646;8.560;2023-09-08T07:42:53;100658.03;;;19.80;84.87
34931;BME280;21134;49.646;8.560;2023-09-08T07:45:19;100660.31;;;19.89;84.00
34931;BME280;21134;49.646;8.560;2023-09-08T07:47:45;100667.69;;;20.00;84.71
34931;BME280;21134;49.646;8.560;2023-09-08T07:50:20;100658.72;;;20.08;83.87
34931;BME280;21134;49.646;8.560;2023-09-08T07:52:48;100655.78;;;20.17;84.17
34931;BME280;21134;49.646;8.560;2023-09-08T07:55:15;100658.75;;;20.30;83.02
34931;BME280;21134;49.646;8.560;2023-09-08T07:57:41;100661.72;;;20.43;81.85
34931;BME280;21134;49.646;8.560;2023-09-08T08:00:10;100665.75;;;20.50;79.69
34931;BME280;21134;49.646;8.560;2023-09-08T08:02:37;100661.16;;;20.58;78.83
34931;BME280;21134;49.646;8.560;2023-09-08T08:05:05;100675.34;;;20.72;77.77
34931;BME280;21134;49.646;8.560;2023-09-08T08:07:32;100672.19;;;20.85;77.20
34931;BME280;21134;49.646;8.560;2023-09-08T08:09:58;100674.16;;;21.01;76.45
34931;BME280;21134;49.646;8.560;2023-09-08T08:12:25;100673.53;;;21.16;75.95
34931;BME280;21134;49.646;8.560;2023-09-08T08:14:52;100676.47;;;21.29;74.78
34931;BME280;21134;49.646;8.560;2023-09-08T08:17:19;100670.75;;;21.41;74.64
34931;BME280;21134;49.646;8.560;2023-09-08T08:19:47;100677.34;;;21.69;72.56
34931;BME280;21134;49.646;8.560;2023-09-08T08:22:13;100676.91;;;21.79;71.52
34931;BME280;21134;49.646;8.560;2023-09-08T08:24:39;100673.09;;;21.87;71.60
34931;BME280;21134;49.646;8.560;2023-09-08T08:27:06;100673.84;;;22.08;70.90
34931;BME280;21134;49.646;8.560;2023-09-08T08:29:32;100672.84;;;22.31;70.23
34931;BME280;21134;49.646;8.560;2023-09-08T08:31:59;100674.84;;;22.43;70.72
34931;BME280;21134;49.646;8.560;2023-09-08T08:34:26;100672.81;;;22.49;68.13
34931;BME280;21134;49.646;8.560;2023-09-08T08:36:53;100673.47;;;22.72;69.13
34931;BME280;21134;49.646;8.560;2023-09-08T08:39:19;100671.13;;;22.85;68.39
34931;BME280;21134;49.646;8.560;2023-09-08T08:41:46;100673.50;;;22.89;66.50
34931;BME280;21134;49.646;8.560;2023-09-08T08:44:13;100668.91;;;23.12;66.55
34931;BME280;21134;49.646;8.560;2023-09-08T08:46:41;100668.91;;;23.29;67.69
34931;BME280;21134;49.646;8.560;2023-09-08T08:49:09;100663.66;;;23.29;68.77
34931;BME280;21134;49.646;8.560;2023-09-08T08:51:39;100671.72;;;23.42;68.39
34931;BME280;21134;49.646;8.560;2023-09-08T08:54:06;100663.19;;;23.56;67.60
34931;BME280;21134;49.646;8.560;2023-09-08T08:56:35;100668.38;;;23.73;66.36
34931;BME280;21134;49.646;8.560;2023-09-08T08:59:02;100665.53;;;23.78;66.64
34931;BME280;21134;49.646;8.560;2023-09-08T09:01:30;100664.13;;;23.88;66.00
34931;BME280;21134;49.646;8.560;2023-09-08T09:03:57;100660.66;;;23.87;65.22
34931;BME280;21134;49.646;8.560;2023-09-08T09:06:24;100659.75;;;24.04;66.67
34931;BME280;21134;49.646;8.560;2023-09-08T09:08:52;100669.38;;;24.20;64.75
34931;BME280;21134;49.646;8.560;2023-09-08T09:11:18;100670.03;;;24.39;64.29
34931;BME280;21134;49.646;8.560;2023-09-08T09:13:45;100664.16;;;24.51;62.91
34931;BME280;21134;49.646;8.560;2023-09-08T09:16:11;100666.50;;;24.56;63.38
34931;BME280;21134;49.646;8.560;2023-09-08T09:18:53;100669.94;;;24.72;62.53
34931;BME280;21134;49.646;8.560;2023-09-08T09:21:20;100675.69;;;24.63;62.43
34931;BME280;21134;49.646;8.560;2023-09-08T09:23:47;100668.91;;;24.75;61.42
34931;BME280;21134;49.646;8.560;2023-09-08T09:26:23;100673.91;;;24.79;61.18
34931;BME280;21134;49.646;8.560;2023-09-08T09:28:50;100675.31;;;24.85;60.79
34931;BME280;21134;49.646;8.560;2023-09-08T09:31:21;100677.13;;;24.99;60.32
34931;BME280;21134;49.646;8.560;2023-09-08T09:34:00;100667.66;;;25.12;59.14
34931;BME280;21134;49.646;8.560;2023-09-08T09:36:28;100678.03;;;25.14;59.11
34931;BME280;21134;49.646;8.560;2023-09-08T09:38:58;100669.63;;;25.23;59.14
34931;BME280;21134;49.646;8.560;2023-09-08T09:41:27;100667.69;;;25.11;59.37
34931;BME280;21134;49.646;8.560;2023-09-08T09:43:54;100664.03;;;25.15;58.32
34931;BME280;21134;49.646;8.560;2023-09-08T09:46:20;100662.53;;;25.25;58.74
34931;BME280;21134;49.646;8.560;2023-09-08T09:48:50;100661.69;;;25.39;58.62
34931;BME280;21134;49.646;8.560;2023-09-08T09:51:18;100660.84;;;25.52;58.49
34931;BME280;21134;49.646;8.560;2023-09-08T09:53:45;100663.69;;;25.64;57.11
34931;BME280;21134;49.646;8.560;2023-09-08T09:56:13;100659.09;;;25.67;56.92
34931;BME280;21134;49.646;8.560;2023-09-08T09:58:42;100655.44;;;25.70;56.84
34931;BME280;21134;49.646;8.560;2023-09-08T10:01:10;100663.03;;;25.89;56.02
34931;BME280;21134;49.646;8.560;2023-09-08T10:03:37;100660.69;;;25.84;55.87
34931;BME280;21134;49.646;8.560;2023-09-08T10:06:05;100661.44;;;25.86;56.00
34931;BME280;21134;49.646;8.560;2023-09-08T10:08:33;100660.56;;;26.00;55.19
34931;BME280;21134;49.646;8.560;2023-09-08T10:11:05;100654.13;;;26.06;55.09
34931;BME280;21134;49.646;8.560;2023-09-08T10:13:37;100655.00;;;26.19;54.62
34931;BME280;21134;49.646;8.560;2023-09-08T10:16:08;100648.34;;;26.28;54.43
34931;BME280;21134;49.646;8.560;2023-09-08T10:18:35;100646.47;;;26.30;54.13
34931;BME280;21134;49.646;8.560;2023-09-08T10:21:03;100648.75;;;26.21;55.18
34931;BME280;21134;49.646;8.560;2023-09-08T10:23:34;100638.59;;;26.30;54.23
34931;BME280;21134;49.646;8.560;2023-09-08T10:26:03;100639.44;;;26.30;54.08
34931;BME280;21134;49.646;8.560;2023-09-08T10:28:32;100637.25;;;26.37;54.60
34931;BME280;21134;49.646;8.560;2023-09-08T10:30:59;100635.56;;;26.50;54.64
34931;BME280;21134;49.646;8.560;2023-09-08T10:33:27;100639.38;;;26.59;54.56
34931;BME280;21134;49.646;8.560;2023-09-08T10:35:54;100632.97;;;26.63;54.37
34931;BME280;21134;49.646;8.560;2023-09-08T10:38:22;100633.41;;;26.70;54.23
34931;BME280;21134;49.646;8.560;2023-09-08T10:40:49;100634.25;;;26.83;54.11
34931;BME280;21134;49.646;8.560;2023-09-08T10:43:16;100632.59;;;26.95;54.17
34931;BME280;21134;49.646;8.560;2023-09-08T10:45:45;100633.00;;;26.88;54.30
34931;BME280;21134;49.646;8.560;2023-09-08T10:48:12;100622.84;;;26.84;54.64
34931;BME280;21134;49.646;8.560;2023-09-08T10:50:41;100622.63;;;26.87;54.66
34931;BME280;21134;49.646;8.560;2023-09-08T10:53:12;100628.41;;;27.05;54.31
34931;BME280;21134;49.646;8.560;2023-09-08T10:55:40;100626.19;;;27.11;54.77
34931;BME280;21134;49.646;8.560;2023-09-08T10:58:09;100630.16;;;27.31;53.21
34931;BME280;21134;49.646;8.560;2023-09-08T11:00:43;100624.78;;;27.33;54.11
34931;BME280;21134;49.646;8.560;2023-09-08T11:03:11;100621.28;;;27.58;53.12
34931;BME280;21134;49.646;8.560;2023-09-08T11:05:38;100624.31;;;27.65;51.73
34931;BME280;21134;49.646;8.560;2023-09-08T11:08:06;100625.06;;;27.54;52.89
34931;BME280;21134;49.646;8.560;2023-09-08T11:10:32;100625.16;;;27.65;51.91
34931;BME280;21134;49.646;8.560;2023-09-08T11:13:01;100619.16;;;27.63;51.07
34931;BME280;21134;49.646;8.560;2023-09-08T11:15:28;100616.97;;;27.57;51.91
34931;BME280;21134;49.646;8.560;2023-09-08T11:17:55;100616.22;;;27.80;52.07
34931;BME280;21134;49.646;8.560;2023-09-08T11:20:26;100616.75;;;27.86;51.39
34931;BME280;21134;49.646;8.560;2023-09-08T11:22:54;100606.63;;;27.92;50.37
34931;BME280;21134;49.646;8.560;2023-09-08T11:25:22;100600.84;;;27.87;50.06
34931;BME280;21134;49.646;8.560;2023-09-08T11:27:48;100610.47;;;27.99;50.41
34931;BME280;21134;49.646;8.560;2023-09-08T11:30:16;100605.59;;;28.06;50.56
34931;BME280;21134;49.646;8.560;2023-09-08T11:32:42;100610.91;;;28.17;49.90
34931;BME280;21134;49.646;8.560;2023-09-08T11:35:10;100609.25;;;28.16;50.05
34931;BME280;21134;49.646;8.560;2023-09-08T11:37:37;100607.28;;;28.31;50.24
34931;BME280;21134;49.646;8.560;2023-09-08T11:40:05;100600.97;;;28.34;49.56
34931;BME280;21134;49.646;8.560;2023-09-08T11:42:35;100593.69;;;28.37;50.41
34931;BME280;21134;49.646;8.560;2023-09-08T11:45:02;100597.34;;;28.47;50.52
34931;BME280;21134;49.646;8.560;2023-09-08T11:47:29;100592.59;;;28.64;50.03
34931;BME280;21134;49.646;8.560;2023-09-08T11:49:57;100592.75;;;28.73;49.41
34931;BME280;21134;49.646;8.560;2023-09-08T11:52:23;100593.25;;;28.79;49.83
34931;BME280;21134;49.646;8.560;2023-09-08T11:54:51;100585.56;;;28.76;49.04
34931;BME280;21134;49.646;8.560;2023-09-08T11:57:18;100588.06;;;28.77;49.86
34931;BME280;21134;49.646;8.560;2023-09-08T11:59:46;100585.81;;;28.84;49.48
34931;BME280;21134;49.646;8.560;2023-09-08T12:02:13;100589.69;;;28.91;49.08
34931;BME280;21134;49.646;8.560;2023-09-08T12:04:40;100585.28;;;29.03;49.49
34931;BME280;21134;49.646;8.560;2023-09-08T12:07:12;100583.97;;;29.08;49.63
34931;BME280;21134;49.646;8.560;2023-09-08T12:09:40;100581.94;;;29.12;48.40
34931;BME280;21134;49.646;8.560;2023-09-08T12:12:10;100574.16;;;29.22;48.44
34931;BME280;21134;49.646;8.560;2023-09-08T12:14:40;100579.91;;;29.15;48.86
34931;BME280;21134;49.646;8.560;2023-09-08T12:17:08;100578.22;;;29.26;48.16
34931;BME280;21134;49.646;8.560;2023-09-08T12:19:35;100571.88;;;29.39;48.32
34931;BME280;21134;49.646;8.560;2023-09-08T12:22:04;100574.16;;;29.44;48.54
34931;BME280;21134;49.646;8.560;2023-09-08T12:24:51;100573.56;;;29.63;47.05
34931;BME280;21134;49.646;8.560;2023-09-08T12:27:23;100570.66;;;29.66;47.59
34931;BME280;21134;49.646;8.560;2023-09-08T12:29:57;100571.75;;;29.63;47.66
34931;BME280;21134;49.646;8.560;2023-09-08T12:32:26;100568.03;;;29.77;46.97
34931;BME280;21134;49.646;8.560;2023-09-08T12:34:54;100560.56;;;29.82;47.45
34931;BME280;21134;49.646;8.560;2023-09-08T12:37:21;100560.78;;;29.91;47.44
34931;BME280;21134;49.646;8.560;2023-09-08T12:39:48;100560.22;;;29.87;46.42
34931;BME280;21134;49.646;8.560;2023-09-08T12:42:14;100561.53;;;29.81;46.58
34931;BME280;21134;49.646;8.560;2023-09-08T12:44:41;100566.34;;;29.76;46.95
34931;BME280;21134;49.646;8.560;2023-09-08T12:47:09;100556.84;;;29.85;47.76
34931;BME280;21134;49.646;8.560;2023-09-08T12:49:37;100558.75;;;29.94;47.38
34931;BME280;21134;49.646;8.560;2023-09-08T12:52:04;100547.69;;;30.00;47.85